Estación Meteorológica Peña el Pijo (Robertgarden) [ 07/23/19 12:44:23 CEST ]

Fecha Hora Presion(HPa) Temp (°C) Humedad % Rocio (°C) Viento ( m/s) Direccion Lluvia 1Hora(mm) Lluvia 24H(mm) LLuvia Total(mm)
2019-Jan-17 01:01:55 1005.500 1.8 78 -1.7         161.09
2019-Jan-17 02:04:13 1004.900 1.6 77 -2.0         161.09
2019-Jan-17 03:01:43 1004.800 2.1 75 -1.9         161.09
2019-Jan-17 04:01:45 1004.500 2.3 75 -1.7         161.09
2019-Jan-17 05:01:58 1003.900 1.9 74 -2.3         161.09
2019-Jan-17 06:01:52 1003.800 1.9 75 -2.1         161.09
2019-Jan-17 07:02:00 1004.000 1.8 76 -2.0         161.09
2019-Jan-17 08:01:51 1004.100 1.6 77 -2.0         161.09
2019-Jan-17 09:01:47 1004.300 1.3 78 -2.2         161.09
2019-Jan-17 10:01:54 1004.400 3.8 79 0.5         161.09
2019-Jan-17 11:01:48 1004.900 6.1 70 1.1         161.09
2019-Jan-17 12:01:36 1005.300 7.6 63 1.0         161.09
2019-Jan-17 13:01:48 1004.500 7.4 61 0.4 1.1 NW     161.09
2019-Jan-17 14:01:46 1003.800 8.3 59 0.7         161.09
2019-Jan-17 15:01:44 1003.500 10.9 52 1.4         161.09
2019-Jan-17 16:01:42 1003.400 9.5 52 0.1         161.09
2019-Jan-17 17:01:52 1003.500 8.3 53 -0.8         161.09
2019-Jan-17 18:01:51 1003.800 6.5 58 -1.2         161.09
2019-Jan-17 19:01:58 1004.400 4.4 61 -2.5         161.09
2019-Jan-17 20:01:51 1004.900 3.3 67 -2.3         161.09
2019-Jan-17 21:01:36 1005.500 3.1 69 -2.0         161.09
2019-Jan-17 22:01:54 1006.200 3.4 69 -1.8         161.09
2019-Jan-17 23:01:49 1006.700 3.4 70 -1.5         161.09

Temperatura Máxima:10°    Temperatura Mínima:
Presión Máxima:1006.700 Hpa    Presión Mínima:1003.400 Hpa


Volver